Stowe, VT

1:45 PM EDT on May 29, 2017 (GMT -0400)
West Hill Stowe | | Change Station

Elev 833 ft 44.49 °N, 72.68 °W | Updated 12 minutes ago

Rain
Rain
54.3 °F
Feels Like 54.3 °F
N
7.0
Wind Variable Wind from WSW
Gusts 9.0 mph

Today
High -- | Low -- °F
--% Chance of Precip.
Yesterday
High -- | Low -- °F
Precip. -- in
Pressure 29.99 in
Visibility 7.0 miles
Clouds Few 6000 ft
Overcast 8000 ft
Dew Point 52 °F
Humidity 91%
Rainfall 0.00 in
Snow Depth Not available.
5:10 AM 8:26 PM
Waxing Crescent, 21% visible
METAR KMVL 291654Z AUTO 16009KT 7SM -RA FEW060 OVC080 12/10 A2998 RMK AO2 SLP156 P0005 T01220100 $
Pressure 29.99 in
Visibility 7.0 miles
Clouds Few 6000 ft
Overcast 8000 ft
Dew Point 52 °F
Humidity 91%
Rainfall 0.00 in
Snow Depth Not available.
5:10 AM 8:26 PM
Waxing Crescent, 21% visible
METAR KMVL 291654Z AUTO 16009KT 7SM -RA FEW060 OVC080 12/10 A2998 RMK AO2 SLP156 P0005 T01220100 $

Get Severe Weather Alerts

Thanks for signing up!

Be on the lookout for a verification email in your inbox.

You'll start receiving the daily forecast at 6 AM.

×

10-Day Weather Forecast

Almanac

Astronomy

May. 29, 2017 Rise Set
Actual Time
Civil Twilight
Nautical Twilight
Astronomical Twilight
Moon
Length of Visible Light
Length of Day
Tomorrow will be .
, % of the Moon is Illuminated

Today's Extremes

State Highs State Lows

Community

WunderPhotos

Category 6

Welcome to Category 6. This is the collective home for Weather Underground's featured writeups by Dr. Jeff Masters (right), Bob Henson (left), Chris Burt, and other regular contributors.

Nearby

Air Quality

  Air Quality AQ Index Pollutant
Not available.

Snow Depth

Station Depth Elevation

Earthquake Activity

City Distance Mag. Time & Date
Minimum magnitude displayed is 2.5.

Coastal Water Temperatures

Place Temperature

Stations

Nearby Weather Stations

Station Location Temp. Windchill Dew Point Humidity Wind Precip. Elev Updated Type
                   

Watches & Warnings

There are currently no watches in effect.